Aérodrome :
LOGIN :

S'inscrire | Disclaimer

   EN    FR    IT 

 










Légende :    VFR   VFR Marginal   IFR   IFR Intensif   IFR Très Intensif
Visi : 
Plafond : 
>= 8 km
>= 3000ft
5 à 8 km
1000 à 3000 ft
1500m à 5 km
500 à 1000 ft
800 à 1500m
200 à 500 ft
< 800m
< 200 ft
Symboles :   Orages  Brouillard  Fortes neiges  Fortes précipitations  Vent > 20 kt
SIGMETs :   Divers  Orages  Givrage  Turbulence  Onde Orograph.  Cendres Volcan.







- Altitude de l'aérodrome : 42 ft
- Code IATA : KGD


UMKK - Khrabrava - Kaliningrad

DERNIER METAR :
  • 220700Z 22005MPS 8000 SCT016 09/07 Q1021 R24/CLRD60 NOSIG RMK QFE764/1019

METARs EXPIRÉS :
  • 220630Z 21005MPS 8000 SCT009 08/06 Q1021 R24/CLRD60 NOSIG RMK QFE764/1019
  • 220600Z 20005MPS 8000 SCT009 08/06 Q1021 R24/CLRD60 NOSIG RMK QFE764/1019
  • 220530Z 21005MPS 8000 SCT010 08/06 Q1021 R24/CLRD60 NOSIG RMK QFE764/1019
  • 220500Z 21005MPS 9000 BKN009 08/06 Q1021 R24/60D NOSIG RMK QFE765/1020
  • 220430Z 21005MPS 180V240 9000 OVC009 08/06 Q1021 R24/60D NOSIG RMK QFE765/1020

TAF TAF UMKK
Valide du 22 à 06h jusqu'au 23 à 06h UTC


220500Z 2206/2306 22006G11MPS 9999 BKN011
TEMPO 2210/2214 31006MPS 3100 -SHRA BR BKN004 BKN015CB
BECMG 2214/2216 28003G10MPS SCT030
FM230300 22009G14MPS 3100 -RA BKN011



MET'MAP, la Météo Aéronautique d'un coup d'oeil ! - Copyright ORBIFLY Décembre 2007 - Disclaimer

ORBIFLY MET'MAP TEAM :

Programmation & Développement : Alexandra Zaïnal
Conception & Développement : Baudouin d'Aumeries
Co-Programmation & Développement : Marc-Olivier Méhu
Soutien technique & logistique : Manuel Goepfert

Contact : metmap@orbifly.com




SOURCES & CREDITS :

   NOAA